Map

Track Data

SID SEASON NUMBER BASIN SUBBASIN NAME ISO_TIME NATURE LAT LON WMO_WIND WMO_PRES WMO_AGENCY TRACK_TYPE DIST2LAND LANDFALL IFLAG USA_AGENCY USA_ATCF_ID USA_LAT USA_LON USA_RECORD USA_STATUS USA_WIND USA_PRES USA_SSHS USA_R34_NE USA_R34_SE USA_R34_SW USA_R34_NW USA_R50_NE USA_R50_SE USA_R50_SW USA_R50_NW USA_R64_NE USA_R64_SE USA_R64_SW USA_R64_NW USA_POCI USA_ROCI USA_RMW USA_EYE TOKYO_LAT TOKYO_LON TOKYO_GRADE TOKYO_WIND TOKYO_PRES TOKYO_R50_DIR TOKYO_R50_LONG TOKYO_R50_SHORT TOKYO_R30_DIR TOKYO_R30_LONG TOKYO_R30_SHORT TOKYO_LAND CMA_LAT CMA_LON CMA_CAT CMA_WIND CMA_PRES HKO_LAT HKO_LON HKO_CAT HKO_WIND HKO_PRES NEWDELHI_LAT NEWDELHI_LON NEWDELHI_GRADE NEWDELHI_WIND NEWDELHI_PRES NEWDELHI_CI NEWDELHI_DP NEWDELHI_POCI REUNION_LAT REUNION_LON REUNION_TYPE REUNION_WIND REUNION_PRES REUNION_TNUM REUNION_CI REUNION_RMW REUNION_R34_NE REUNION_R34_SE REUNION_R34_SW REUNION_R34_NW REUNION_R50_NE REUNION_R50_SE REUNION_R50_SW REUNION_R50_NW REUNION_R64_NE REUNION_R64_SE REUNION_R64_SW REUNION_R64_NW BOM_LAT BOM_LON BOM_TYPE BOM_WIND BOM_PRES BOM_TNUM BOM_CI BOM_RMW BOM_R34_NE BOM_R34_SE BOM_R34_SW BOM_R34_NW BOM_R50_NE BOM_R50_SE BOM_R50_SW BOM_R50_NW BOM_R64_NE BOM_R64_SE BOM_R64_SW BOM_R64_NW BOM_ROCI BOM_POCI BOM_EYE BOM_POS_METHOD BOM_PRES_METHOD NADI_LAT NADI_LON NADI_CAT NADI_WIND NADI_PRES WELLINGTON_LAT WELLINGTON_LON WELLINGTON_WIND WELLINGTON_PRES DS824_LAT DS824_LON DS824_STAGE DS824_WIND DS824_PRES TD9636_LAT TD9636_LON TD9636_STAGE TD9636_WIND TD9636_PRES TD9635_LAT TD9635_LON TD9635_WIND TD9635_PRES TD9635_ROCI NEUMANN_LAT NEUMANN_LON NEUMANN_CLASS NEUMANN_WIND NEUMANN_PRES MLC_LAT MLC_LON MLC_CLASS MLC_WIND MLC_PRES USA_GUST BOM_GUST BOM_GUST_PER REUNION_GUST REUNION_GUST_PER USA_SEAHGT USA_SEARAD_NE USA_SEARAD_SE USA_SEARAD_SW USA_SEARAD_NW STORM_SPEED STORM_DIR
2002264N28308 2002 72 NA NA KYLE 2002-09-20 18:00:00 SS 28.3000 -51.8000 25 1007 hurdat_atl main 1788 1788 O_____________ hurdat_atl AL122002 28.3000 -51.8000 SD 25 1007 -2 1013 225 125 11 26
2002264N28308 2002 72 NA NA KYLE 2002-09-20 21:00:00 SS 28.7777 -51.5361 main 1844 1844 P_____________ AL122002 28.7777 -51.5361 SD 27 1007 -2 1013 225 125 11 19
2002264N28308 2002 72 NA NA KYLE 2002-09-21 00:00:00 SS 29.3000 -51.4000 30 1007 hurdat_atl main 1885 1876 O_____________ hurdat_atl AL122002 29.3000 -51.4000 SD 30 1007 -2 1013 225 125 11 3
2002264N28308 2002 72 NA NA KYLE 2002-09-21 03:00:00 SS 29.8800 -51.4691 main 1865 1808 P_____________ AL122002 29.8800 -51.4691 SD 32 1007 -2 1013 225 125 11 351
2002264N28308 2002 72 NA NA KYLE 2002-09-21 06:00:00 SS 30.4000 -51.6000 35 1007 hurdat_atl main 1808 1775 O_____________ hurdat_atl AL122002 30.4000 -51.6000 SS 35 1007 -2 150 150 1013 225 125 9 351
2002264N28308 2002 72 NA NA KYLE 2002-09-21 09:00:00 SS 30.7299 -51.6375 main 1775 1742 P_____________ AL122002 30.7299 -51.6375 SS 35 1007 -2 150 150 1014 225 100 6 1
2002264N28308 2002 72 NA NA KYLE 2002-09-21 12:00:00 SS 31.0000 -51.6000 35 1007 hurdat_atl main 1742 1709 O_____________ hurdat_atl AL122002 31.0000 -51.6000 SS 35 1007 -2 150 150 1016 225 75 6 13
2002264N28308 2002 72 NA NA KYLE 2002-09-21 15:00:00 SS 31.3425 -51.4801 main 1709 1666 P_____________ AL122002 31.3425 -51.4801 SS 37 1006 -2 150 150 1016 237 75 7 20
2002264N28308 2002 72 NA NA KYLE 2002-09-21 18:00:00 SS 31.7000 -51.3000 40 1006 hurdat_atl main 1666 1623 O_____________ hurdat_atl AL122002 31.7000 -51.3000 SS 40 1006 -2 150 150 1016 250 75 8 23
2002264N28308 2002 72 NA NA KYLE 2002-09-21 21:00:00 SS 32.0725 -51.1076 main 1623 1592 P_____________ AL122002 32.0725 -51.1076 SS 42 1005 -2 150 150 1016 250 75 8 26
2002264N28308 2002 72 NA NA KYLE 2002-09-22 00:00:00 SS 32.4000 -50.9000 45 1004 hurdat_atl main 1592 1571 O_____________ hurdat_atl AL122002 32.4000 -50.9000 SS 45 1004 -2 150 150 1016 250 75 6 31
2002264N28308 2002 72 NA NA KYLE 2002-09-22 03:00:00 SS 32.6224 -50.7147 main 1572 1551 P_____________ AL122002 32.6224 -50.7147 SS 42 1005 -2 150 150 1016 250 75 5 40
2002264N28308 2002 72 NA NA KYLE 2002-09-22 06:00:00 SS 32.8000 -50.5000 40 1006 hurdat_atl main 1552 1533 O_____________ hurdat_atl AL122002 32.8000 -50.5000 SS 40 1006 -2 150 150 1016 250 75 6 47
2002264N28308 2002 72 NA NA KYLE 2002-09-22 09:00:00 SS 33.0226 -50.2002 main 1534 1515 P_____________ AL122002 33.0226 -50.2002 SS 40 1006 -2 150 150 1016 250 75 6 52
2002264N28308 2002 72 NA NA KYLE 2002-09-22 12:00:00 SS 33.2000 -49.9000 40 1006 hurdat_atl main 1517 1507 O_____________ hurdat_atl AL122002 33.2000 -49.9000 SS 40 1006 -2 150 150 1016 250 75 5 58
2002264N28308 2002 72 NA NA KYLE 2002-09-22 15:00:00 SS 33.2874 -49.6848 main 1509 1509 P_____________ AL122002 33.2874 -49.6848 SS 40 1006 -2 105 105 1016 250 75 3 73
2002264N28308 2002 72 NA NA KYLE 2002-09-22 18:00:00 SS 33.3000 -49.5000 40 1006 hurdat_atl main 1512 1512 O_____________ hurdat_atl AL122002 33.3000 -49.5000 SS 40 1006 -2 60 60 60 60 1016 250 75 4 89
2002264N28308 2002 72 NA NA KYLE 2002-09-22 21:00:00 SS 33.2951 -49.2473 main 1518 1518 P_____________ AL122002 33.2951 -49.2473 SS 37 1006 -2 60 60 60 60 1016 250 75 3 107
2002264N28308 2002 72 NA NA KYLE 2002-09-23 00:00:00 TS 33.2000 -49.1000 35 1007 hurdat_atl main 1530 1530 O_____________ hurdat_atl AL122002 33.2000 -49.1000 TS 35 1007 0 60 60 60 60 1016 250 75 3 175
2002264N28308 2002 72 NA NA KYLE 2002-09-23 03:00:00 TS 32.9726 -49.2129 main 1550 1550 P_____________ AL122002 32.9726 -49.2129 TS 35 1007 0 60 60 60 60 1015 225 75 6 207
2002264N28308 2002 72 NA NA KYLE 2002-09-23 06:00:00 TS 32.7000 -49.4000 35 1007 hurdat_atl main 1580 1580 O_____________ hurdat_atl AL122002 32.7000 -49.4000 TS 35 1007 0 60 60 60 60 1014 200 75 5 204
2002264N28308 2002 72 NA NA KYLE 2002-09-23 09:00:00 TS 32.4925 -49.4648 main 1600 1600 P_____________ AL122002 32.4925 -49.4648 TS 35 1006 0 60 60 60 60 1014 200 57 4 192
2002264N28308 2002 72 NA NA KYLE 2002-09-23 12:00:00 TS 32.3000 -49.5000 35 1005 hurdat_atl main 1622 1622 O_____________ hurdat_atl AL122002 32.3000 -49.5000 TS 35 1005 0 60 60 60 60 1014 200 40 4 189
2002264N28308 2002 72 NA NA KYLE 2002-09-23 15:00:00 TS 32.1074 -49.5273 main 1644 1644 P_____________ AL122002 32.1074 -49.5273 TS 37 1004 0 60 60 60 60 1014 200 40 4 192
2002264N28308 2002 72 NA NA KYLE 2002-09-23 18:00:00 TS 31.9000 -49.6000 40 1003 hurdat_atl main 1664 1664 O_____________ hurdat_atl AL122002 31.9000 -49.6000 TS 40 1003 0 60 60 60 60 1014 200 40 5 205
2002264N28308 2002 72 NA NA KYLE 2002-09-23 21:00:00 TS 31.6500 -49.7776 main 1683 1683 P_____________ AL122002 31.6500 -49.7776 TS 40 1003 0 60 60 60 60 1014 200 40 6 214
2002264N28308 2002 72 NA NA KYLE 2002-09-24 00:00:00 TS 31.4000 -50.0000 40 1003 hurdat_atl main 1714 1714 O_____________ hurdat_atl AL122002 31.4000 -50.0000 TS 40 1003 0 60 60 60 60 1014 200 40 6 219
2002264N28308 2002 72 NA NA KYLE 2002-09-24 03:00:00 TS 31.1925 -50.2074 main 1733 1733 P_____________ AL122002 31.1925 -50.2074 TS 42 1001 0 90 90 110 110 1014 200 40 5 221
2002264N28308 2002 72 NA NA KYLE 2002-09-24 06:00:00 TS 31.0000 -50.4000 45 1000 hurdat_atl main 1753 1753 O_____________ hurdat_atl AL122002 31.0000 -50.4000 TS 45 1000 0 120 120 160 160 1014 200 40 5 216
2002264N28308 2002 72 NA NA KYLE 2002-09-24 09:00:00 TS 30.7924 -50.5499 main 1774 1773 P_____________ AL122002 30.7924 -50.5499 TS 47 998 0 120 120 160 160 1014 200 35 5 213
2002264N28308 2002 72 NA NA KYLE 2002-09-24 12:00:00 TS 30.6000 -50.7000 50 997 hurdat_atl main 1794 1794 O_____________ hurdat_atl AL122002 30.6000 -50.7000 TS 50 997 0 120 120 160 160 1014 200 30 4 216
2002264N28308 2002 72 NA NA KYLE 2002-09-24 15:00:00 TS 30.4422 -50.8472 main 1815 1813 P_____________ AL122002 30.4422 -50.8472 TS 52 995 0 120 120 160 160 1014 200 30 5 229
2002264N28308 2002 72 NA NA KYLE 2002-09-24 18:00:00 TS 30.3000 -51.1000 55 994 hurdat_atl main 1823 1822 O_____________ hurdat_atl AL122002 30.3000 -51.1000 TS 55 994 0 120 120 160 160 1014 200 30 6 243
2002264N28308 2002 72 NA NA KYLE 2002-09-24 21:00:00 TS 30.1496 -51.5099 main 1842 1841 P_____________ AL122002 30.1496 -51.5099 TS 55 994 0 130 130 160 160 1014 200 30 9 251
2002264N28308 2002 72 NA NA KYLE 2002-09-25 00:00:00 TS 30.0000 -52.1000 55 994 hurdat_atl main 1850 1816 O_____________ hurdat_atl AL122002 30.0000 -52.1000 TS 55 994 0 140 140 160 160 1014 200 30 13 257
2002264N28308 2002 72 NA NA KYLE 2002-09-25 03:00:00 TS 29.8587 -52.9226 main 1816 1744 P_____________ AL122002 29.8587 -52.9226 TS 55 994 0 150 150 160 160 1014 200 30 14 258
2002264N28308 2002 72 NA NA KYLE 2002-09-25 06:00:00 TS 29.7000 -53.7000 55 994 hurdat_atl main 1744 1701 O_____________ hurdat_atl AL122002 29.7000 -53.7000 TS 55 994 0 160 160 160 160 1014 200 30 11 251
2002264N28308 2002 72 NA NA KYLE 2002-09-25 09:00:00 TS 29.4990 -54.1021 main 1701 1665 P_____________ AL122002 29.4990 -54.1021 TS 57 992 0 160 160 160 160 1014 200 30 7 237
2002264N28308 2002 72 NA NA KYLE 2002-09-25 12:00:00 TS 29.3000 -54.4000 60 990 hurdat_atl main 1665 1629 O_____________ hurdat_atl AL122002 29.3000 -54.4000 TS 60 990 0 160 160 160 160 1014 200 30 7 240
2002264N28308 2002 72 NA NA KYLE 2002-09-25 15:00:00 TS 29.1496 -54.8046 main 1621 1580 P_____________ AL122002 29.1496 -54.8046 TS 62 988 0 160 160 160 160 1014 200 25 8 249
2002264N28308 2002 72 NA NA KYLE 2002-09-25 18:00:00 TS 29.0000 -55.3000 65 987 hurdat_atl main 1580 1523 O_____________ hurdat_atl AL122002 29.0000 -55.3000 HU 65 987 1 160 160 160 160 1014 200 20 11 251
2002264N28308 2002 72 NA NA KYLE 2002-09-25 21:00:00 TS 28.8080 -55.9502 main 1517 1461 P_____________ AL122002 28.8080 -55.9502 HU 65 987 1 160 160 160 160 1014 200 20 12 251
2002264N28308 2002 72 NA NA KYLE 2002-09-26 00:00:00 TS 28.6000 -56.6000 65 987 hurdat_atl main 1461 1413 O_____________ hurdat_atl AL122002 28.6000 -56.6000 HU 65 987 1 160 160 160 160 1014 200 20 11 247
2002264N28308 2002 72 NA NA KYLE 2002-09-26 03:00:00 TS 28.3921 -57.0873 main 1413 1371 P_____________ AL122002 28.3921 -57.0873 HU 67 985 1 160 160 160 160 1014 200 20 9 243
2002264N28308 2002 72 NA NA KYLE 2002-09-26 06:00:00 TS 28.2000 -57.5000 70 984 hurdat_atl main 1371 1329 O_____________ hurdat_atl AL122002 28.2000 -57.5000 HU 70 984 1 160 160 160 160 1014 200 20 8 243
2002264N28308 2002 72 NA NA KYLE 2002-09-26 09:00:00 TS 28.0274 -57.9149 main 1329 1296 P_____________ AL122002 28.0274 -57.9149 HU 72 983 1 142 142 142 142 1012 187 17 8 247
2002264N28308 2002 72 NA NA KYLE 2002-09-26 12:00:00 TS 27.9000 -58.3000 75 982 hurdat_atl main 1296 1273 O_____________ hurdat_atl AL122002 27.9000 -58.3000 HU 75 982 1 125 125 125 125 1010 175 15 7 255
2002264N28308 2002 72 NA NA KYLE 2002-09-26 15:00:00 TS 27.8500 -58.6722 main 1264 1248 P_____________ AL122002 27.8500 -58.6722 HU 75 981 1 125 125 125 125 1010 175 15 6 261
2002264N28308 2002 72 NA NA KYLE 2002-09-26 18:00:00 TS 27.8000 -59.0000 75 981 hurdat_atl main 1248 1222 O_____________ hurdat_atl AL122002 27.8000 -59.0000 HU 75 981 1 125 125 125 125 1010 175 15 6 251
2002264N28308 2002 72 NA NA KYLE 2002-09-26 21:00:00 TS 27.6724 -59.2650 main 1222 1192 P_____________ AL122002 27.6724 -59.2650 HU 75 980 1 125 125 125 125 1010 175 15 5 236
2002264N28308 2002 72 NA NA KYLE 2002-09-27 00:00:00 TS 27.5000 -59.5000 75 980 hurdat_atl main 1192 1163 O_____________ hurdat_atl AL122002 27.5000 -59.5000 HU 75 980 1 125 125 125 125 1010 175 15 6 228
2002264N28308 2002 72 NA NA KYLE 2002-09-27 03:00:00 TS 27.2850 -59.7576 main 1158 1128 P_____________ AL122002 27.2850 -59.7576 HU 75 981 1 122 112 112 122 1010 177 17 6 228
2002264N28308 2002 72 NA NA KYLE 2002-09-27 06:00:00 TS 27.1000 -60.0000 75 982 hurdat_atl main 1128 1108 O_____________ hurdat_atl AL122002 27.1000 -60.0000 HU 75 982 1 120 100 100 120 1010 180 20 5 238
2002264N28308 2002 72 NA NA KYLE 2002-09-27 09:00:00 TS 27.0349 -60.2073 main 1108 1098 P_____________ AL122002 27.0349 -60.2073 HU 75 982 1 120 100 100 120 1010 180 20 4 254
2002264N28308 2002 72 NA NA KYLE 2002-09-27 12:00:00 TS 27.0000 -60.4000 75 982 hurdat_atl main 1098 1079 O_____________ hurdat_atl AL122002 27.0000 -60.4000 HU 75 982 1 120 100 100 120 1010 180 20 4 250
2002264N28308 2002 72 NA NA KYLE 2002-09-27 15:00:00 TS 26.9149 -60.5849 main 1079 1060 P_____________ AL122002 26.9149 -60.5849 HU 72 983 1 120 100 100 120 1010 180 20 4 241
2002264N28308 2002 72 NA NA KYLE 2002-09-27 18:00:00 TS 26.8000 -60.8000 70 984 hurdat_atl main 1060 1040 O_____________ hurdat_atl AL122002 26.8000 -60.8000 HU 70 984 1 120 100 100 120 1010 180 20 5 238
2002264N28308 2002 72 NA NA KYLE 2002-09-27 21:00:00 TS 26.6498 -61.0625 main 1026 1002 P_____________ AL122002 26.6498 -61.0625 HU 70 984 1 120 110 110 120 1010 200 20 6 241
2002264N28308 2002 72 NA NA KYLE 2002-09-28 00:00:00 TS 26.5000 -61.4000 70 984 hurdat_atl main 1002 975 O_____________ hurdat_atl AL122002 26.5000 -61.4000 HU 70 984 1 120 120 120 120 1011 220 20 8 248
2002264N28308 2002 72 NA NA KYLE 2002-09-28 03:00:00 TS 26.3627 -61.8502 main 971 945 P_____________ AL122002 26.3627 -61.8502 HU 67 985 1 110 120 110 110 1010 210 20 8 256
2002264N28308 2002 72 NA NA KYLE 2002-09-28 06:00:00 TS 26.3000 -62.3000 65 987 hurdat_atl main 945 935 O_____________ hurdat_atl AL122002 26.3000 -62.3000 HU 65 987 1 100 120 100 100 1010 200 20 7 271
2002264N28308 2002 72 NA NA KYLE 2002-09-28 09:00:00 TS 26.3699 -62.6447 main 945 939 P_____________ AL122002 26.3699 -62.6447 HU 62 988 0 100 120 100 100 1011 200 20 6 290
2002264N28308 2002 72 NA NA KYLE 2002-09-28 12:00:00 TS 26.5000 -62.9000 60 990 hurdat_atl main 946 943 O_____________ hurdat_atl AL122002 26.5000 -62.9000 TS 60 990 0 100 120 100 100 1012 200 20 4 300
2002264N28308 2002 72 NA NA KYLE 2002-09-28 15:00:00 TS 26.5848 -63.0577 main 951 951 P_____________ AL122002 26.5848 -63.0577 TS 55 993 0 87 120 100 100 1012 200 20 3 307
2002264N28308 2002 72 NA NA KYLE 2002-09-28 18:00:00 TS 26.7000 -63.2000 50 997 hurdat_atl main 959 959 O_____________ hurdat_atl AL122002 26.7000 -63.2000 TS 50 997 0 75 120 100 100 1012 200 20 5 315
2002264N28308 2002 72 NA NA KYLE 2002-09-28 21:00:00 TS 26.9074 -63.4198 main 976 974 P_____________ AL122002 26.9074 -63.4198 TS 47 998 0 75 110 100 87 1012 220 20 6 312
2002264N28308 2002 72 NA NA KYLE 2002-09-29 00:00:00 TS 27.1000 -63.7000 45 1000 hurdat_atl main 991 986 O_____________ hurdat_atl AL122002 27.1000 -63.7000 TS 45 1000 0 75 100 100 75 1012 240 20 6 292
2002264N28308 2002 72 NA NA KYLE 2002-09-29 03:00:00 TS 27.1427 -64.0653 main 984 983 P_____________ AL122002 27.1427 -64.0653 TS 42 1001 0 97 110 110 87 1012 240 45 6 279
2002264N28308 2002 72 NA NA KYLE 2002-09-29 06:00:00 TS 27.2000 -64.4000 40 1002 hurdat_atl main 991 990 O_____________ hurdat_atl AL122002 27.2000 -64.4000 TS 40 1002 0 120 120 120 100 1012 240 70 6 301
2002264N28308 2002 72 NA NA KYLE 2002-09-29 09:00:00 TS 27.4274 -64.6024 main 1011 1011 P_____________ AL122002 27.4274 -64.6024 TS 40 1002 0 97 120 1012 240 70 6 332
2002264N28308 2002 72 NA NA KYLE 2002-09-29 12:00:00 TS 27.7000 -64.7000 40 1002 hurdat_atl main 1043 1043 O_____________ hurdat_atl AL122002 27.7000 -64.7000 TS 40 1002 0 75 120 1012 240 70 5 347
2002264N28308 2002 72 NA NA KYLE 2002-09-29 15:00:00 TS 27.8925 -64.7301 main 1065 1065 P_____________ AL122002 27.8925 -64.7301 TS 40 1002 0 75 120 1012 240 70 4 0
2002264N28308 2002 72 NA NA KYLE 2002-09-29 18:00:00 TS 28.1000 -64.7000 40 1002 hurdat_atl main 1088 1088 O_____________ hurdat_atl AL122002 28.1000 -64.7000 TS 40 1002 0 75 120 1012 240 70 5 9
2002264N28308 2002 72 NA NA KYLE 2002-09-29 21:00:00 TS 28.4000 -64.6427 main 1122 1122 P_____________ AL122002 28.4000 -64.6427 TS 40 1002 0 75 120 1012 240 70 6 8
2002264N28308 2002 72 NA NA KYLE 2002-09-30 00:00:00 TS 28.7000 -64.6000 40 1002 hurdat_atl main 1153 1153 O_____________ hurdat_atl AL122002 28.7000 -64.6000 TS 40 1002 0 75 120 1013 240 70 6 6
2002264N28308 2002 72 NA NA KYLE 2002-09-30 03:00:00 TS 28.9523 -64.5824 main 1183 1183 P_____________ AL122002 28.9523 -64.5824 TS 37 1002 0 75 120 1013 240 70 4 348
2002264N28308 2002 72 NA NA KYLE 2002-09-30 06:00:00 TS 29.1000 -64.7000 35 1003 hurdat_atl main 1189 1184 O_____________ hurdat_atl AL122002 29.1000 -64.7000 TS 35 1003 0 75 120 1014 240 70 4 300
2002264N28308 2002 72 NA NA KYLE 2002-09-30 09:00:00 TS 29.1698 -65.0163 main 1185 1144 P_____________ AL122002 29.1698 -65.0163 TS 35 1003 0 75 120 1014 240 70 7 262
2002264N28308 2002 72 NA NA KYLE 2002-09-30 12:00:00 TS 29.0000 -65.5000 35 1004 hurdat_atl main 1144 1059 O_____________ hurdat_atl AL122002 29.0000 -65.5000 TS 35 1004 0 75 120 1014 240 70 13 231
2002264N28308 2002 72 NA NA KYLE 2002-09-30 15:00:00 TS 28.3633 -66.1556 main 1056 974 P_____________ AL122002 28.3633 -66.1556 TS 32 1004 -1 62 85 1014 240 70 16 221
2002264N28308 2002 72 NA NA KYLE 2002-09-30 18:00:00 TS 27.8000 -66.7000 30 1005 hurdat_atl main 974 967 O_____________ hurdat_atl AL122002 27.8000 -66.7000 TD 30 1005 -1 50 50 50 50 1014 240 70 8 232
2002264N28308 2002 72 NA NA KYLE 2002-09-30 21:00:00 TS 27.8871 -66.8389 main 975 975 P_____________ AL122002 27.8871 -66.8389 TD 30 1005 -1 1014 240 70 4 348
2002264N28308 2002 72 NA NA KYLE 2002-10-01 00:00:00 TS 28.2000 -66.8000 30 1005 hurdat_atl main 1001 1001 O_____________ hurdat_atl AL122002 28.2000 -66.8000 TD 30 1005 -1 1014 240 70 5 6
2002264N28308 2002 72 NA NA KYLE 2002-10-01 03:00:00 TS 28.3800 -66.7776 main 1018 1018 P_____________ AL122002 28.3800 -66.7776 TD 30 1006 -1 1014 220 70 3 0
2002264N28308 2002 72 NA NA KYLE 2002-10-01 06:00:00 TS 28.5000 -66.8000 30 1008 hurdat_atl main 1027 1015 O_____________ hurdat_atl AL122002 28.5000 -66.8000 TD 30 1008 -1 1014 200 70 2 309
2002264N28308 2002 72 NA NA KYLE 2002-10-01 09:00:00 TS 28.5226 -66.9775 main 1015 1003 P_____________ AL122002 28.5226 -66.9775 TD 32 1006 -1 1014 200 70 4 270
2002264N28308 2002 72 NA NA KYLE 2002-10-01 12:00:00 TS 28.5000 -67.2000 35 1005 hurdat_atl main 1003 991 O_____________ hurdat_atl AL122002 28.5000 -67.2000 TS 35 1005 0 1014 200 70 3 267
2002264N28308 2002 72 NA NA KYLE 2002-10-01 15:00:00 TS 28.5075 -67.3650 main 991 985 P_____________ AL122002 28.5075 -67.3650 TS 37 1003 0 1014 200 70 3 270
2002264N28308 2002 72 NA NA KYLE 2002-10-01 18:00:00 TS 28.5000 -67.5000 40 1002 hurdat_atl main 985 971 O_____________ hurdat_atl AL122002 28.5000 -67.5000 TS 40 1002 0 150 1014 200 70 2 254
2002264N28308 2002 72 NA NA KYLE 2002-10-01 21:00:00 TS 28.4425 -67.6150 main 971 965 P_____________ AL122002 28.4425 -67.6150 TS 42 1001 0 150 1013 200 65 2 240
2002264N28308 2002 72 NA NA KYLE 2002-10-02 00:00:00 TS 28.4000 -67.7000 45 1000 hurdat_atl main 965 960 O_____________ hurdat_atl AL122002 28.4000 -67.7000 TS 45 1000 0 150 1012 200 60 1 261
2002264N28308 2002 72 NA NA KYLE 2002-10-02 03:00:00 TS 28.4200 -67.7799 main 960 960 P_____________ AL122002 28.4200 -67.7799 TS 45 1000 0 137 1012 200 60 1 320
2002264N28308 2002 72 NA NA KYLE 2002-10-02 06:00:00 TS 28.5000 -67.8000 45 1000 hurdat_atl main 969 969 O_____________ hurdat_atl AL122002 28.5000 -67.8000 TS 45 1000 0 125 125 1012 200 60 2 7
2002264N28308 2002 72 NA NA KYLE 2002-10-02 09:00:00 TS 28.6424 -67.7600 main 978 978 P_____________ AL122002 28.6424 -67.7600 TS 47 998 0 137 137 1012 200 55 3 30
2002264N28308 2002 72 NA NA KYLE 2002-10-02 12:00:00 TS 28.8000 -67.6000 50 997 hurdat_atl main 1007 1007 O_____________ hurdat_atl AL122002 28.8000 -67.6000 TS 50 997 0 150 150 1012 200 50 5 59
2002264N28308 2002 72 NA NA KYLE 2002-10-02 15:00:00 TS 28.9154 -67.2502 main 1033 1033 P_____________ AL122002 28.9154 -67.2502 TS 52 995 0 150 150 1012 200 45 6 72
2002264N28308 2002 72 NA NA KYLE 2002-10-02 18:00:00 TS 29.0000 -66.9000 55 994 hurdat_atl main 1065 1065 O_____________ hurdat_atl AL122002 29.0000 -66.9000 TS 55 994 0 150 150 1012 200 40 5 70
2002264N28308 2002 72 NA NA KYLE 2002-10-02 21:00:00 TS 29.0723 -66.7549 main 1080 1080 P_____________ AL122002 29.0723 -66.7549 TS 55 994 0 150 150 1012 200 40 2 60
2002264N28308 2002 72 NA NA KYLE 2002-10-03 00:00:00 TS 29.1000 -66.7000 55 994 hurdat_atl main 1086 1086 O_____________ hurdat_atl AL122002 29.1000 -66.7000 TS 55 994 0 150 150 50 50 1012 200 40 1 96
2002264N28308 2002 72 NA NA KYLE 2002-10-03 03:00:00 TS 29.0574 -66.5899 main 1091 1083 P_____________ AL122002 29.0574 -66.5899 TS 55 994 0 150 150 50 50 1012 200 40 1 140
2002264N28308 2002 72 NA NA KYLE 2002-10-03 06:00:00 TS 29.0000 -66.6000 55 994 hurdat_atl main 1083 1071 O_____________ hurdat_atl AL122002 29.0000 -66.6000 TS 55 994 0 150 150 50 50 1012 200 40 2 249
2002264N28308 2002 72 NA NA KYLE 2002-10-03 09:00:00 TS 28.9702 -66.8552 main 1065 1048 P_____________ AL122002 28.9702 -66.8552 TS 52 997 0 135 135 40 40 1012 187 45 5 270
2002264N28308 2002 72 NA NA KYLE 2002-10-03 12:00:00 TS 29.0000 -67.2000 50 1000 hurdat_atl main 1048 1041 O_____________ hurdat_atl AL122002 29.0000 -67.2000 TS 50 1000 0 120 120 30 30 1012 175 50 6 288
2002264N28308 2002 72 NA NA KYLE 2002-10-03 15:00:00 TS 29.1425 -67.4723 main 1041 1021 P_____________ AL122002 29.1425 -67.4723 TS 47 1000 0 120 120 30 30 1012 175 50 5 305
2002264N28308 2002 72 NA NA KYLE 2002-10-03 18:00:00 TS 29.3000 -67.7000 45 1000 hurdat_atl main 1021 1006 O_____________ hurdat_atl AL122002 29.3000 -67.7000 TS 45 1000 0 120 120 30 30 1012 175 50 4 303
2002264N28308 2002 72 NA NA KYLE 2002-10-03 21:00:00 TS 29.3574 -67.8577 main 999 991 P_____________ AL122002 29.3574 -67.8577 TS 45 1000 0 120 120 30 30 1012 175 50 3 291
2002264N28308 2002 72 NA NA KYLE 2002-10-04 00:00:00 TS 29.4000 -68.0000 45 1000 hurdat_atl main 991 977 O_____________ hurdat_atl AL122002 29.4000 -68.0000 TS 45 1000 0 120 120 30 30 1012 175 50 3 294
2002264N28308 2002 72 NA NA KYLE 2002-10-04 03:00:00 TS 29.4696 -68.1405 main 977 947 P_____________ AL122002 29.4696 -68.1405 TS 40 1000 0 120 120 30 30 1012 175 50 4 300
2002264N28308 2002 72 NA NA KYLE 2002-10-04 06:00:00 TS 29.6000 -68.4000 35 1000 hurdat_atl main 947 896 O_____________ hurdat_atl AL122002 29.6000 -68.4000 TS 35 1000 0 120 120 30 30 1012 175 50 8 298
2002264N28308 2002 72 NA NA KYLE 2002-10-04 09:00:00 TS 29.8281 -68.9270 main 896 831 P_____________ AL122002 29.8281 -68.9270 TS 35 1002 0 120 120 30 30 1012 175 50 11 298
2002264N28308 2002 72 NA NA KYLE 2002-10-04 12:00:00 TS 30.1000 -69.5000 35 1004 hurdat_atl main 831 787 O_____________ hurdat_atl AL122002 30.1000 -69.5000 TS 35 1004 0 120 120 30 30 1012 175 50 10 302
2002264N28308 2002 72 NA NA KYLE 2002-10-04 15:00:00 TS 30.3496 -69.8804 main 787 744 P_____________ AL122002 30.3496 -69.8804 TS 35 1004 0 97 97 27 27 1012 175 50 8 310
2002264N28308 2002 72 NA NA KYLE 2002-10-04 18:00:00 TS 30.6000 -70.2000 35 1004 hurdat_atl main 744 707 O_____________ hurdat_atl AL122002 30.6000 -70.2000 TS 35 1004 0 75 75 25 25 1012 175 50 8 311
2002264N28308 2002 72 NA NA KYLE 2002-10-04 21:00:00 TS 30.8499 -70.5502 main 700 657 P_____________ AL122002 30.8499 -70.5502 TS 35 1004 0 87 62 1012 175 75 8 310
2002264N28308 2002 72 NA NA KYLE 2002-10-05 00:00:00 TS 31.1000 -70.9000 35 1004 hurdat_atl main 657 614 O_____________ hurdat_atl AL122002 31.1000 -70.9000 TS 35 1004 0 100 100 1012 175 100 8 306
2002264N28308 2002 72 NA NA KYLE 2002-10-05 03:00:00 TS 31.3352 -71.3246 main 614 570 P_____________ AL122002 31.3352 -71.3246 TS 32 1005 -1 1012 162 100 8 310
2002264N28308 2002 72 NA NA KYLE 2002-10-05 06:00:00 TS 31.6000 -71.6000 30 1006 hurdat_atl main 570 548 O_____________ hurdat_atl AL122002 31.6000 -71.6000 TD 30 1006 -1 1012 150 100 6 343
2002264N28308 2002 72 NA NA KYLE 2002-10-05 09:00:00 TS 31.9424 -71.5405 main 556 542 P_____________ AL122002 31.9424 -71.5405 TD 30 1005 -1 1012 150 100 7 20
2002264N28308 2002 72 NA NA KYLE 2002-10-05 12:00:00 TS 32.3000 -71.3000 30 1005 hurdat_atl main 545 538 O_____________ hurdat_atl AL122002 32.3000 -71.3000 TD 30 1005 -1 1012 150 100 8 30
2002264N28308 2002 72 NA NA KYLE 2002-10-05 15:00:00 TS 32.6299 -71.0800 main 538 530 P_____________ AL122002 32.6299 -71.0800 TD 30 1005 -1 1012 150 100 7 35
2002264N28308 2002 72 NA NA KYLE 2002-10-05 18:00:00 TS 32.9000 -70.8000 30 1005 hurdat_atl main 538 538 O_____________ hurdat_atl AL122002 32.9000 -70.8000 TD 30 1005 -1 1012 150 100 7 51
2002264N28308 2002 72 NA NA KYLE 2002-10-05 21:00:00 TS 33.0652 -70.4423 main 555 555 P_____________ AL122002 33.0652 -70.4423 TD 30 1005 -1 1012 150 100 7 63
2002264N28308 2002 72 NA NA KYLE 2002-10-06 00:00:00 TS 33.2000 -70.1000 30 1006 hurdat_atl main 572 572 O_____________ hurdat_atl AL122002 33.2000 -70.1000 TD 30 1006 -1 1012 150 100 6 53
2002264N28308 2002 72 NA NA KYLE 2002-10-06 03:00:00 TS 33.4449 -69.8476 main 585 579 P_____________ AL122002 33.4449 -69.8476 TD 30 1007 -1 1012 150 100 5 40
2002264N28308 2002 72 NA NA KYLE 2002-10-06 06:00:00 TS 33.6000 -69.7000 30 1008 hurdat_atl main 583 583 O_____________ hurdat_atl AL122002 33.6000 -69.7000 TD 30 1008 -1 1012 150 100 2 64
2002264N28308 2002 72 NA NA KYLE 2002-10-06 09:00:00 TS 33.5174 -69.6699 main 588 588 P_____________ AL122002 33.5174 -69.6699 TD 32 1007 -1 1013 135 65 3 0
2002264N28308 2002 72 NA NA KYLE 2002-10-06 12:00:00 TS 33.3000 -69.7000 35 1007 hurdat_atl main 598 598 O_____________ hurdat_atl AL122002 33.3000 -69.7000 TS 35 1007 0 1014 120 30 5 0
2002264N28308 2002 72 NA NA KYLE 2002-10-06 15:00:00 TS 33.0425 -69.7000 main 615 615 P_____________ AL122002 33.0425 -69.7000 TS 35 1006 0 1014 120 27 5 178
2002264N28308 2002 72 NA NA KYLE 2002-10-06 18:00:00 TS 32.8000 -69.7000 35 1006 hurdat_atl main 627 627 O_____________ hurdat_atl AL122002 32.8000 -69.7000 TS 35 1006 0 60 100 100 30 1014 120 25 4 175
2002264N28308 2002 72 NA NA KYLE 2002-10-06 21:00:00 TS 32.6623 -69.6475 main 641 640 P_____________ AL122002 32.6623 -69.6475 TS 35 1006 0 60 100 100 30 1014 120 25 2 172
2002264N28308 2002 72 NA NA KYLE 2002-10-07 00:00:00 TS 32.6000 -69.7000 35 1006 hurdat_atl main 640 617 O_____________ hurdat_atl AL122002 32.6000 -69.7000 TS 35 1006 0 60 100 100 30 1014 120 25 3 256
2002264N28308 2002 72 NA NA KYLE 2002-10-07 03:00:00 TS 32.5854 -70.0199 main 617 588 P_____________ AL122002 32.5854 -70.0199 TS 35 1006 0 60 100 100 45 1014 120 25 6 270
2002264N28308 2002 72 NA NA KYLE 2002-10-07 06:00:00 TS 32.6000 -70.4000 35 1006 hurdat_atl main 588 573 O_____________ hurdat_atl AL122002 32.6000 -70.4000 TS 35 1006 0 60 100 100 60 1014 120 25 5 271
2002264N28308 2002 72 NA NA KYLE 2002-10-07 09:00:00 TS 32.5924 -70.6450 main 573 559 P_____________ AL122002 32.5924 -70.6450 TS 35 1006 0 60 100 100 60 1013 135 25 3 270
2002264N28308 2002 72 NA NA KYLE 2002-10-07 12:00:00 TS 32.6000 -70.8000 35 1006 hurdat_atl main 559 545 O_____________ hurdat_atl AL122002 32.6000 -70.8000 TS 35 1006 0 60 100 100 60 1012 150 25 2 289
2002264N28308 2002 72 NA NA KYLE 2002-10-07 15:00:00 TS 32.6574 -70.8725 main 545 545 P_____________ AL122002 32.6574 -70.8725 TS 35 1006 0 60 100 100 60 1012 150 25 1 320
2002264N28308 2002 72 NA NA KYLE 2002-10-07 18:00:00 TS 32.7000 -70.9000 35 1006 hurdat_atl main 545 545 O_____________ hurdat_atl AL122002 32.7000 -70.9000 TS 35 1006 0 60 100 100 60 1012 150 25 1 303
2002264N28308 2002 72 NA NA KYLE 2002-10-07 21:00:00 TS 32.6950 -70.9424 main 545 538 P_____________ AL122002 32.6950 -70.9424 TS 35 1006 0 67 87 80 60 1012 150 25 1 220
2002264N28308 2002 72 NA NA KYLE 2002-10-08 00:00:00 TS 32.6000 -71.0000 35 1006 hurdat_atl main 545 545 O_____________ hurdat_atl AL122002 32.6000 -71.0000 TS 35 1006 0 75 75 60 60 1012 150 25 3 203
2002264N28308 2002 72 NA NA KYLE 2002-10-08 03:00:00 TS 32.3950 -71.1001 main 553 553 P_____________ AL122002 32.3950 -71.1001 TS 35 1006 0 75 75 60 60 1012 150 25 5 199
2002264N28308 2002 72 NA NA KYLE 2002-10-08 06:00:00 TS 32.1000 -71.2000 35 1006 hurdat_atl main 565 565 O_____________ hurdat_atl AL122002 32.1000 -71.2000 TS 35 1006 0 75 75 60 60 1012 150 25 6 190
2002264N28308 2002 72 NA NA KYLE 2002-10-08 09:00:00 TS 31.7649 -71.2195 main 585 585 P_____________ AL122002 31.7649 -71.2195 TS 35 1006 0 75 75 60 60 1012 135 25 7 187
2002264N28308 2002 72 NA NA KYLE 2002-10-08 12:00:00 TS 31.4000 -71.3000 35 1006 hurdat_atl main 606 606 O_____________ hurdat_atl AL122002 31.4000 -71.3000 TS 35 1006 0 75 75 60 60 1013 120 25 8 203
2002264N28308 2002 72 NA NA KYLE 2002-10-08 15:00:00 TS 31.0652 -71.5702 main 607 607 P_____________ AL122002 31.0652 -71.5702 TS 32 1007 -1 1013 120 25 9 216
2002264N28308 2002 72 NA NA KYLE 2002-10-08 18:00:00 TS 30.7000 -71.9000 30 1009 hurdat_atl main 619 619 O_____________ hurdat_atl AL122002 30.7000 -71.9000 TD 30 1009 -1 1013 120 25 9 211
2002264N28308 2002 72 NA NA KYLE 2002-10-08 21:00:00 TS 30.2572 -72.1270 main 640 640 P_____________ AL122002 30.2572 -72.1270 TD 30 1009 -1 1013 120 25 10 206
2002264N28308 2002 72 NA NA KYLE 2002-10-09 00:00:00 TS 29.8000 -72.4000 30 1010 hurdat_atl main 668 668 O_____________ hurdat_atl AL122002 29.8000 -72.4000 TD 30 1010 -1 1014 120 25 11 214
2002264N28308 2002 72 NA NA KYLE 2002-10-09 03:00:00 TS 29.3553 -72.8355 main 685 636 P_____________ AL122002 29.3553 -72.8355 TD 30 1009 -1 1013 120 27 11 224
2002264N28308 2002 72 NA NA KYLE 2002-10-09 06:00:00 TS 29.0000 -73.3000 30 1009 hurdat_atl main 636 600 O_____________ hurdat_atl AL122002 29.0000 -73.3000 TD 30 1009 -1 1013 120 30 9 233
2002264N28308 2002 72 NA NA KYLE 2002-10-09 09:00:00 TS 28.8047 -73.6569 main 593 564 P_____________ AL122002 28.8047 -73.6569 TD 30 1009 -1 1013 120 30 7 244
2002264N28308 2002 72 NA NA KYLE 2002-10-09 12:00:00 TS 28.7000 -74.0000 30 1010 hurdat_atl main 564 529 O_____________ hurdat_atl AL122002 28.7000 -74.0000 TD 30 1010 -1 1013 120 30 7 251
2002264N28308 2002 72 NA NA KYLE 2002-10-09 15:00:00 TS 28.5848 -74.3774 main 529 494 P_____________ AL122002 28.5848 -74.3774 TD 27 1010 -1 1013 120 30 7 254
2002264N28308 2002 72 NA NA KYLE 2002-10-09 18:00:00 TS 28.5000 -74.8000 25 1011 hurdat_atl main 494 461 O_____________ hurdat_atl AL122002 28.5000 -74.8000 TD 25 1011 -1 1014 120 30 8 260
2002264N28308 2002 72 NA NA KYLE 2002-10-09 21:00:00 TS 28.4423 -75.2699 main 455 428 P_____________ AL122002 28.4423 -75.2699 TD 25 1010 -1 1014 120 30 9 264
2002264N28308 2002 72 NA NA KYLE 2002-10-10 00:00:00 TS 28.4000 -75.8000 25 1010 hurdat_atl main 428 391 O_____________ hurdat_atl AL122002 28.4000 -75.8000 TD 25 1010 -1 1014 120 30 10 264
2002264N28308 2002 72 NA NA KYLE 2002-10-10 03:00:00 TS 28.3350 -76.3927 main 391 337 P_____________ AL122002 28.3350 -76.3927 TD 25 1010 -1 1014 120 30 11 265
2002264N28308 2002 72 NA NA KYLE 2002-10-10 06:00:00 TS 28.3000 -77.0000 25 1010 hurdat_atl main 337 292 O_____________ hurdat_atl AL122002 28.3000 -77.0000 TD 25 1010 -1 1014 120 30 10 268
2002264N28308 2002 72 NA NA KYLE 2002-10-10 09:00:00 TS 28.3044 -77.5354 main 292 234 P_____________ AL122002 28.3044 -77.5354 TD 25 1010 -1 1014 120 30 10 276
2002264N28308 2002 72 NA NA KYLE 2002-10-10 12:00:00 TS 28.4000 -78.1000 25 1010 hurdat_atl main 234 166 O_____________ hurdat_atl AL122002 28.4000 -78.1000 TD 25 1010 -1 1014 120 30 12 284
2002264N28308 2002 72 NA NA KYLE 2002-10-10 15:00:00 TS 28.5906 -78.8297 main 166 107 P_____________ AL122002 28.5906 -78.8297 TD 27 1010 -1 1013 110 30 13 292
2002264N28308 2002 72 NA NA KYLE 2002-10-10 18:00:00 TS 28.9000 -79.5000 30 1010 hurdat_atl main 107 93 O_____________ hurdat_atl AL122002 28.9000 -79.5000 TD 30 1010 -1 1013 100 30 12 308
2002264N28308 2002 72 NA NA KYLE 2002-10-10 21:00:00 TS 29.3194 -79.9104 main 98 93 P_____________ AL122002 29.3194 -79.9104 TD 30 1009 -1 1013 100 30 11 326
2002264N28308 2002 72 NA NA KYLE 2002-10-11 00:00:00 TS 29.8000 -80.2000 30 1009 hurdat_atl main 97 83 O_____________ hurdat_atl AL122002 29.8000 -80.2000 TD 30 1009 -1 1013 100 30 11 328
2002264N28308 2002 72 NA NA KYLE 2002-10-11 03:00:00 TS 30.2351 -80.5597 main 77 57 P_____________ AL122002 30.2351 -80.5597 TD 32 1008 -1 1013 100 35 10 330
2002264N28308 2002 72 NA NA KYLE 2002-10-11 06:00:00 TS 30.7000 -80.8000 35 1008 hurdat_atl main 57 39 O_____________ hurdat_atl AL122002 30.7000 -80.8000 TS 35 1008 0 40 1013 100 40 10 343
2002264N28308 2002 72 NA NA KYLE 2002-10-11 09:00:00 TS 31.2066 -80.9100 main 39 21 P_____________ AL122002 31.2066 -80.9100 TS 35 1008 0 40 1013 100 40 11 5
2002264N28308 2002 72 NA NA KYLE 2002-10-11 12:00:00 TS 31.8000 -80.7000 35 1008 hurdat_atl main 21 11 O_____________ hurdat_atl AL122002 31.8000 -80.7000 TS 35 1008 0 40 1013 100 40 15 30
2002264N28308 2002 72 NA NA KYLE 2002-10-11 15:00:00 TS 32.5364 -80.0023 main 11 0 P_____________ AL122002 32.5364 -80.0023 TS 35 1009 0 40 1013 100 40 19 40
2002264N28308 2002 72 NA NA KYLE 2002-10-11 17:00:00 TS 33.0000 -79.5000 35 1011 hurdat_atl main 0 0 V_____________ hurdat_atl AL122002 33.0000 -79.5000 L TS 35 1011 0 40 1013 100 40 18 42
2002264N28308 2002 72 NA NA KYLE 2002-10-11 18:00:00 TS 33.2000 -79.3000 35 1011 hurdat_atl main 0 0 O_____________ hurdat_atl AL122002 33.2000 -79.3000 TS 35 1011 0 40 40 1013 100 40 16 45
2002264N28308 2002 72 NA NA KYLE 2002-10-11 21:00:00 TS 33.7398 -78.6217 main 21 0 P_____________ AL122002 33.7398 -78.6217 TS 35 1011 0 1013 102 70 15 47
2002264N28308 2002 72 NA NA KYLE 2002-10-11 22:00:00 TS 33.9000 -78.4000 35 1011 hurdat_atl main 0 0 V_____________ hurdat_atl AL122002 33.9000 -78.4000 L TS 35 1011 0 1013 103 80 14 48
2002264N28308 2002 72 NA NA KYLE 2002-10-12 00:00:00 TS 34.2000 -78.0000 30 1012 hurdat_atl main 0 0 O_____________ hurdat_atl AL122002 34.2000 -78.0000 TD 30 1012 -1 1013 105 100 17 53
2002264N28308 2002 72 NA NA KYLE 2002-10-12 03:00:00 TS 34.7599 -77.0362 main 0 0 P_____________ AL122002 34.7599 -77.0362 TD 35 1010 0 22 22 1013 105 65 21 55
2002264N28308 2002 72 NA NA KYLE 2002-10-12 06:00:00 TS 35.4000 -75.9000 40 1009 hurdat_atl main 14 9 O_____________ hurdat_atl AL122002 35.4000 -75.9000 TS 40 1009 0 45 45 1013 105 30 21 53
2002264N28308 2002 72 NA NA KYLE 2002-10-12 09:00:00 TS 36.0510 -74.9353 main 63 63 P_____________ AL122002 36.0510 -74.9353 TS 40 1009 0 45 45 1013 127 30 20 48
2002264N28308 2002 72 NA NA KYLE 2002-10-12 12:00:00 TS 36.7000 -74.1000 40 1009 hurdat_atl main 153 O_____________ hurdat_atl AL122002 36.7000 -74.1000 TS 40 1009 0 45 45 1013 150 30 19 46

About IBTrACS Database

This database is a web-friendly format of International Best Track Archive for Climate Stewardship (IBTrACS), a global best track data archive curated by NOAA dating back to 1842.

Updated: 2021-11-26